createdAt,value
2019-03-26T00:01:39.722Z,4.35
2019-03-26T00:04:07.936Z,4.95
2019-03-26T00:06:36.165Z,4.60
2019-03-26T00:09:07.341Z,4.50
2019-03-26T00:11:35.568Z,4.53
2019-03-26T00:14:03.892Z,4.87
2019-03-26T00:16:32.119Z,4.80
2019-03-26T00:19:19.797Z,4.75
2019-03-26T00:21:48.024Z,4.97
2019-03-26T00:24:16.241Z,4.45
2019-03-26T00:26:44.468Z,4.72
2019-03-26T00:29:12.683Z,4.78
2019-03-26T00:31:40.908Z,4.75
2019-03-26T00:34:18.632Z,4.80
2019-03-26T00:36:39.185Z,5.00
2019-03-26T00:39:07.675Z,4.22
2019-03-26T00:41:35.888Z,4.97
2019-03-26T00:44:04.127Z,4.83
2019-03-26T00:46:32.343Z,4.37
2019-03-26T00:49:00.842Z,4.85
2019-03-26T00:51:29.051Z,4.85
2019-03-26T00:53:57.288Z,4.60
2019-03-26T00:56:25.508Z,4.78
2019-03-26T00:58:53.739Z,4.65
2019-03-26T01:01:21.964Z,4.42
2019-03-26T01:03:50.195Z,4.72
2019-03-26T01:06:18.412Z,4.55
2019-03-26T01:08:46.645Z,4.62
2019-03-26T01:11:14.864Z,4.92
2019-03-26T01:13:43.104Z,4.47
2019-03-26T01:16:11.389Z,4.87
2019-03-26T01:18:39.624Z,4.47
2019-03-26T01:21:07.840Z,4.78
2019-03-26T01:23:36.076Z,4.87
2019-03-26T01:26:04.292Z,4.67
2019-03-26T01:28:32.604Z,4.95
2019-03-26T01:31:00.824Z,4.78
2019-03-26T01:33:29.136Z,4.58
2019-03-26T01:35:57.352Z,4.47
2019-03-26T01:38:45.017Z,4.53
2019-03-26T01:41:13.304Z,5.00
2019-03-26T01:43:41.867Z,4.87
2019-03-26T01:46:10.084Z,4.80
2019-03-26T01:48:38.317Z,4.97
2019-03-26T01:51:06.533Z,4.75
2019-03-26T01:53:34.796Z,4.35
2019-03-26T01:56:03.012Z,4.75
2019-03-26T01:58:31.248Z,4.75
2019-03-26T02:00:59.465Z,5.42
2019-03-26T02:03:27.704Z,4.97
2019-03-26T02:05:55.921Z,5.15
2019-03-26T02:08:24.158Z,5.22
2019-03-26T02:10:52.372Z,4.85
2019-03-26T02:13:20.610Z,4.75
2019-03-26T02:15:49.149Z,4.92
2019-03-26T02:18:17.464Z,5.08
2019-03-26T02:20:45.676Z,5.33
2019-03-26T02:23:33.341Z,5.00
2019-03-26T02:26:01.562Z,4.87
2019-03-26T02:28:29.972Z,5.45
2019-03-26T02:30:58.190Z,4.95
2019-03-26T02:33:26.421Z,5.45
2019-03-26T02:35:54.633Z,5.05
2019-03-26T02:38:42.554Z,5.60
2019-03-26T02:41:10.764Z,5.35
2019-03-26T02:43:39.000Z,5.10
2019-03-26T02:46:07.492Z,4.55
2019-03-26T02:48:35.713Z,5.60
2019-03-26T02:51:04.005Z,5.37
2019-03-26T02:53:32.236Z,5.80
2019-03-26T02:56:00.806Z,4.58
2019-03-26T02:58:29.032Z,5.45
2019-03-26T03:01:16.692Z,5.15
2019-03-26T03:03:44.901Z,5.33
2019-03-26T03:06:13.187Z,5.42
2019-03-26T03:08:41.568Z,5.37
2019-03-26T03:11:09.800Z,5.60
2019-03-26T03:13:38.019Z,5.37
2019-03-26T03:16:06.258Z,5.70
2019-03-26T03:18:34.474Z,5.37
2019-03-26T03:21:02.705Z,5.83
2019-03-26T03:23:30.914Z,5.62
2019-03-26T03:25:59.146Z,5.28
2019-03-26T03:28:27.356Z,5.65
2019-03-26T03:30:55.586Z,5.25
2019-03-26T03:33:23.817Z,5.97
2019-03-26T03:35:53.171Z,5.50
2019-03-26T03:38:21.869Z,5.22
2019-03-26T03:40:50.102Z,5.65
2019-03-26T03:43:18.325Z,5.20
2019-03-26T03:45:46.536Z,5.62
2019-03-26T03:48:14.769Z,5.58
2019-03-26T03:50:42.994Z,4.90
2019-03-26T03:53:11.215Z,6.05
2019-03-26T03:55:39.434Z,5.45
2019-03-26T03:58:07.666Z,5.40
2019-03-26T04:00:37.335Z,6.08
2019-03-26T04:03:05.718Z,5.65
2019-03-26T04:05:34.471Z,5.58
2019-03-26T04:08:02.716Z,5.65
2019-03-26T04:10:30.925Z,5.53
2019-03-26T04:12:59.225Z,5.60
2019-03-26T04:15:27.614Z,5.75
2019-03-26T04:17:55.976Z,5.67
2019-03-26T04:20:24.358Z,5.65
2019-03-26T04:22:52.580Z,5.92
2019-03-26T04:25:20.796Z,5.83
2019-03-26T04:27:49.025Z,6.15
2019-03-26T04:30:23.141Z,6.03
2019-03-26T04:32:51.368Z,5.08
2019-03-26T04:35:19.621Z,5.80
2019-03-26T04:37:47.888Z,6.60
2019-03-26T04:40:16.121Z,5.65
2019-03-26T04:42:44.338Z,5.62
2019-03-26T04:45:12.569Z,5.78
2019-03-26T04:47:40.826Z,5.33
2019-03-26T04:50:09.093Z,5.97
2019-03-26T04:52:37.312Z,5.75
2019-03-26T04:55:05.718Z,6.17
2019-03-26T04:57:33.935Z,5.78
2019-03-26T05:00:02.161Z,6.15
2019-03-26T05:02:30.376Z,6.25
2019-03-26T05:04:58.611Z,5.87
2019-03-26T05:07:26.826Z,5.83
2019-03-26T05:09:55.052Z,6.12
2019-03-26T05:12:23.360Z,6.40
2019-03-26T05:14:51.588Z,6.60
2019-03-26T05:17:20.099Z,6.42
2019-03-26T05:19:48.324Z,7.00
2019-03-26T05:22:24.206Z,6.90
2019-03-26T05:24:46.804Z,6.72
2019-03-26T05:27:15.019Z,7.05
2019-03-26T05:29:43.256Z,6.92
2019-03-26T05:32:11.799Z,6.78
2019-03-26T05:34:40.285Z,6.58
2019-03-26T05:37:08.500Z,7.22
2019-03-26T05:39:36.736Z,6.97
2019-03-26T05:42:04.958Z,7.25
2019-03-26T05:44:33.196Z,7.62
2019-03-26T05:47:01.884Z,7.37
2019-03-26T05:49:30.303Z,6.75
2019-03-26T05:51:58.523Z,7.40
2019-03-26T05:54:27.010Z,7.30
2019-03-26T05:56:55.229Z,7.17
2019-03-26T05:59:23.465Z,7.90
2019-03-26T06:01:51.679Z,7.40
2019-03-26T06:04:19.944Z,6.78
2019-03-26T06:06:48.164Z,7.85
2019-03-26T06:09:16.392Z,7.30
2019-03-26T06:11:44.688Z,7.97
2019-03-26T06:14:12.920Z,8.23
2019-03-26T06:16:41.140Z,7.17
2019-03-26T06:19:09.665Z,7.50
2019-03-26T06:21:37.884Z,7.28
2019-03-26T06:24:06.122Z,8.15
2019-03-26T06:26:34.364Z,8.40
2019-03-26T06:29:02.877Z,8.38
2019-03-26T06:31:31.109Z,8.43
2019-03-26T06:33:59.329Z,8.60
2019-03-26T06:36:27.560Z,8.75
2019-03-26T06:38:55.780Z,8.58
2019-03-26T06:41:24.012Z,8.88
2019-03-26T06:43:52.248Z,8.83
2019-03-26T06:46:20.465Z,8.73
2019-03-26T06:48:48.688Z,8.43
2019-03-26T06:51:16.925Z,8.70
2019-03-26T06:53:45.149Z,15.53
2019-03-26T06:56:13.721Z,16.62
2019-03-26T06:58:42.013Z,12.20
2019-03-26T07:01:10.273Z,8.73
2019-03-26T07:03:38.496Z,8.20
2019-03-26T07:06:06.969Z,7.47
2019-03-26T07:08:35.521Z,7.50
2019-03-26T07:11:03.750Z,8.30
2019-03-26T07:13:32.569Z,8.80
2019-03-26T07:16:02.122Z,8.08
2019-03-26T07:18:30.345Z,8.70
2019-03-26T07:20:58.576Z,7.67
2019-03-26T07:23:26.833Z,7.35
2019-03-26T07:25:55.385Z,7.65
2019-03-26T07:28:23.609Z,7.35
2019-03-26T07:31:11.274Z,7.72
2019-03-26T07:33:39.493Z,7.78
2019-03-26T07:36:07.965Z,8.38
2019-03-26T07:38:36.192Z,8.85
2019-03-26T07:41:04.424Z,8.80
2019-03-26T07:43:32.650Z,9.70
2019-03-26T07:46:01.156Z,9.30
2019-03-26T07:48:29.373Z,9.00
2019-03-26T07:50:57.593Z,8.83
2019-03-26T07:53:25.824Z,8.83
2019-03-26T07:55:54.040Z,7.92
2019-03-26T07:58:22.282Z,8.28
2019-03-26T08:00:50.503Z,7.12
2019-03-26T08:03:21.080Z,7.17
2019-03-26T08:05:48.687Z,7.45
2019-03-26T08:08:16.908Z,9.28
2019-03-26T08:10:45.129Z,9.68
2019-03-26T08:13:13.369Z,9.68
2019-03-26T08:15:41.619Z,9.18
2019-03-26T08:18:09.892Z,9.30
2019-03-26T08:20:38.112Z,9.03
2019-03-26T08:23:06.412Z,9.60
2019-03-26T08:25:34.663Z,8.85
2019-03-26T08:28:05.085Z,8.98
2019-03-26T08:30:33.128Z,9.75
2019-03-26T08:33:01.367Z,8.83
2019-03-26T08:35:29.593Z,8.88
2019-03-26T08:38:11.317Z,9.23
2019-03-26T08:40:27.780Z,9.13
2019-03-26T08:42:56.009Z,8.90
2019-03-26T08:45:24.229Z,9.28
2019-03-26T08:47:52.456Z,8.98
2019-03-26T08:50:20.676Z,8.98
2019-03-26T08:52:48.912Z,9.93
2019-03-26T08:55:17.132Z,9.78
2019-03-26T08:57:45.364Z,9.55
2019-03-26T09:00:13.854Z,8.45
2019-03-26T09:02:42.085Z,8.83
2019-03-26T09:05:10.327Z,9.38
2019-03-26T09:07:38.608Z,8.25
2019-03-26T09:10:09.172Z,8.63
2019-03-26T09:12:39.548Z,8.43
2019-03-26T09:15:09.496Z,7.60
2019-03-26T09:17:38.168Z,8.75
2019-03-26T09:20:08.065Z,7.92
2019-03-26T09:22:36.296Z,8.83
2019-03-26T09:25:06.148Z,8.45
2019-03-26T09:27:34.384Z,8.38
2019-03-26T09:30:02.680Z,8.65
2019-03-26T09:32:30.916Z,8.48
2019-03-26T09:34:59.140Z,8.90
2019-03-26T09:37:27.372Z,8.00
2019-03-26T09:39:55.593Z,8.75
2019-03-26T09:42:23.822Z,8.83
2019-03-26T09:44:52.047Z,9.03
2019-03-26T09:47:20.277Z,8.35
2019-03-26T09:49:48.497Z,8.98
2019-03-26T09:52:16.977Z,8.88
2019-03-26T09:54:45.212Z,8.75
2019-03-26T09:57:13.739Z,8.60
2019-03-26T09:59:42.216Z,9.33
2019-03-26T10:02:10.441Z,9.93
2019-03-26T10:04:38.672Z,9.90
2019-03-26T10:07:06.888Z,9.63
2019-03-26T10:09:35.116Z,9.55
2019-03-26T10:12:03.419Z,8.98
2019-03-26T10:14:31.648Z,9.40
2019-03-26T10:16:59.872Z,8.98
2019-03-26T10:19:28.105Z,9.03
2019-03-26T10:21:56.335Z,8.70
2019-03-26T10:24:24.567Z,8.30
2019-03-26T10:26:52.788Z,8.68
2019-03-26T10:29:30.098Z,8.28
2019-03-26T10:31:50.972Z,8.38
2019-03-26T10:34:19.522Z,8.63
2019-03-26T10:36:48.109Z,8.50
2019-03-26T10:39:16.341Z,7.90
2019-03-26T10:41:44.567Z,7.08
2019-03-26T10:44:12.800Z,8.48
2019-03-26T10:46:44.376Z,7.97
2019-03-26T10:49:10.981Z,7.90
2019-03-26T10:51:39.202Z,8.13
2019-03-26T10:54:07.432Z,7.40
2019-03-26T10:56:35.956Z,7.75
2019-03-26T10:59:04.488Z,7.80
2019-03-26T11:01:32.782Z,7.33
2019-03-26T11:04:01.013Z,7.42
2019-03-26T11:06:48.662Z,8.18
2019-03-26T11:09:24.058Z,7.58
2019-03-26T11:11:46.842Z,7.15
2019-03-26T11:14:15.400Z,7.42
2019-03-26T11:16:43.618Z,7.05
2019-03-26T11:19:11.852Z,7.47
2019-03-26T11:21:40.070Z,7.62
2019-03-26T11:24:08.303Z,7.30
2019-03-26T11:26:36.519Z,7.15
2019-03-26T11:29:04.755Z,7.20
2019-03-26T11:31:32.968Z,7.87
2019-03-26T11:34:01.207Z,7.53
2019-03-26T11:36:29.420Z,7.17
2019-03-26T11:38:57.664Z,7.30
2019-03-26T11:41:26.126Z,6.85
2019-03-26T11:43:54.358Z,7.50
2019-03-26T11:46:22.576Z,7.33
2019-03-26T11:48:51.060Z,7.00
2019-03-26T11:51:19.276Z,7.33
2019-03-26T11:53:47.537Z,7.28
2019-03-26T11:56:15.808Z,7.08
2019-03-26T11:58:44.036Z,7.17
2019-03-26T12:01:12.540Z,7.28
2019-03-26T12:03:40.777Z,7.42
2019-03-26T12:06:09.000Z,7.70
2019-03-26T12:08:37.228Z,7.85
2019-03-26T12:11:05.452Z,6.80
2019-03-26T12:13:33.681Z,7.10
2019-03-26T12:16:01.900Z,6.30
2019-03-26T12:18:30.143Z,6.72
2019-03-26T12:20:58.354Z,6.92
2019-03-26T12:23:26.572Z,7.53
2019-03-26T12:25:54.804Z,7.75
2019-03-26T12:28:23.024Z,6.72
2019-03-26T12:30:51.553Z,7.15
2019-03-26T12:33:19.781Z,7.78
2019-03-26T12:35:48.025Z,8.13
2019-03-26T12:38:17.804Z,7.30
2019-03-26T12:40:46.033Z,7.12
2019-03-26T12:43:14.277Z,7.47
2019-03-26T12:45:42.860Z,7.70
2019-03-26T12:48:11.088Z,7.08
2019-03-26T12:50:39.317Z,6.72
2019-03-26T12:53:08.464Z,7.08
2019-03-26T12:55:36.802Z,6.75
2019-03-26T12:58:05.029Z,6.97
2019-03-26T13:00:33.250Z,6.75
2019-03-26T13:03:01.755Z,6.20
2019-03-26T13:05:29.997Z,7.05
2019-03-26T13:07:58.228Z,6.55
2019-03-26T13:10:26.448Z,6.70
2019-03-26T13:12:54.682Z,6.30
2019-03-26T13:15:22.925Z,6.17
2019-03-26T13:17:51.165Z,6.30
2019-03-26T13:20:19.378Z,6.30
2019-03-26T13:22:47.599Z,6.42
2019-03-26T13:25:15.830Z,6.50
2019-03-26T13:27:44.048Z,6.47
2019-03-26T13:30:12.282Z,6.70
2019-03-26T13:32:40.821Z,6.67
2019-03-26T13:35:09.312Z,6.80
2019-03-26T13:37:37.530Z,6.10
2019-03-26T13:40:06.032Z,6.78
2019-03-26T13:42:34.254Z,6.17
2019-03-26T13:45:02.486Z,5.65
2019-03-26T13:47:30.992Z,6.17
2019-03-26T13:49:59.350Z,6.70
2019-03-26T13:52:27.628Z,6.53
2019-03-26T13:54:55.864Z,7.20
2019-03-26T13:57:24.080Z,6.85
2019-03-26T13:59:52.376Z,6.62
2019-03-26T14:02:20.605Z,6.42
2019-03-26T14:04:48.836Z,6.37
2019-03-26T14:07:17.060Z,6.28
2019-03-26T14:09:45.297Z,6.30
2019-03-26T14:12:13.524Z,6.53
2019-03-26T14:14:41.768Z,5.90
2019-03-26T14:17:09.988Z,5.80
2019-03-26T14:19:38.225Z,5.67
2019-03-26T14:22:06.440Z,5.35
2019-03-26T14:24:34.865Z,4.90
2019-03-26T14:27:03.098Z,4.92
2019-03-26T14:29:31.333Z,5.25
2019-03-26T14:31:59.580Z,4.80
2019-03-26T14:34:27.816Z,4.20
2019-03-26T14:36:56.036Z,4.50
2019-03-26T14:39:24.268Z,4.20
2019-03-26T14:41:52.488Z,3.92
2019-03-26T14:44:20.720Z,3.70
2019-03-26T14:46:49.208Z,3.52
2019-03-26T14:49:17.444Z,3.85
2019-03-26T14:51:45.669Z,3.80
2019-03-26T14:54:13.921Z,4.28
2019-03-26T14:56:42.137Z,3.77
2019-03-26T14:59:10.372Z,3.20
2019-03-26T15:01:38.592Z,3.60
2019-03-26T15:04:07.069Z,3.33
2019-03-26T15:06:35.302Z,2.65
2019-03-26T15:09:04.621Z,2.60
2019-03-26T15:11:32.856Z,2.50
2019-03-26T15:14:01.255Z,2.60
2019-03-26T15:16:29.485Z,2.50
2019-03-26T15:18:58.032Z,2.55
2019-03-26T15:21:26.268Z,2.25
2019-03-26T15:23:54.797Z,2.52
2019-03-26T15:26:23.035Z,2.40
2019-03-26T15:28:51.252Z,2.12
2019-03-26T15:31:19.497Z,2.22
2019-03-26T15:33:47.705Z,2.00
2019-03-26T15:36:15.936Z,1.80
2019-03-26T15:38:44.241Z,2.05
2019-03-26T15:41:21.571Z,1.85
2019-03-26T15:43:42.676Z,2.00
2019-03-26T15:46:11.232Z,2.00
2019-03-26T15:48:39.458Z,1.92
2019-03-26T15:51:07.980Z,1.90
2019-03-26T15:53:36.691Z,2.02
2019-03-26T15:56:04.929Z,1.85
2019-03-26T15:58:33.460Z,1.98
2019-03-26T16:01:01.695Z,2.27
2019-03-26T16:03:29.913Z,2.10
2019-03-26T16:05:58.457Z,1.80
2019-03-26T16:08:26.673Z,2.33
2019-03-26T16:10:54.952Z,2.10
2019-03-26T16:13:23.221Z,2.35
2019-03-26T16:15:51.875Z,1.80
2019-03-26T16:18:20.250Z,1.90
2019-03-26T16:20:48.481Z,2.17
2019-03-26T16:23:16.706Z,2.45
2019-03-26T16:25:44.932Z,2.30
2019-03-26T16:28:13.154Z,2.30
2019-03-26T16:30:41.384Z,2.62
2019-03-26T16:33:09.605Z,2.30
2019-03-26T16:35:40.198Z,2.52
2019-03-26T16:38:08.107Z,2.02
2019-03-26T16:40:36.336Z,2.37
2019-03-26T16:43:04.865Z,2.10
2019-03-26T16:45:33.187Z,2.40
2019-03-26T16:48:01.401Z,2.47
2019-03-26T16:50:29.632Z,2.72
2019-03-26T16:52:57.881Z,1.90
2019-03-26T16:55:26.457Z,2.83
2019-03-26T16:57:54.673Z,3.37
2019-03-26T17:00:31.188Z,3.50
2019-03-26T17:03:00.247Z,3.25
2019-03-26T17:05:28.484Z,3.00
2019-03-26T17:07:56.704Z,3.15
2019-03-26T17:10:24.936Z,3.47
2019-03-26T17:12:53.164Z,5.37
2019-03-26T17:15:21.409Z,3.60
2019-03-26T17:17:49.675Z,3.10
2019-03-26T17:20:17.910Z,3.10
2019-03-26T17:22:46.232Z,3.77
2019-03-26T17:25:14.877Z,5.47
2019-03-26T17:27:43.112Z,3.80
2019-03-26T17:30:11.322Z,4.20
2019-03-26T17:32:39.552Z,3.75
2019-03-26T17:35:08.244Z,4.15
2019-03-26T17:37:36.793Z,4.72
2019-03-26T17:40:05.285Z,4.12
2019-03-26T17:42:33.885Z,4.45
2019-03-26T17:45:02.240Z,4.22
2019-03-26T17:47:30.463Z,5.05
2019-03-26T17:49:58.684Z,4.87
2019-03-26T17:52:27.252Z,5.62
2019-03-26T17:54:55.780Z,5.25
2019-03-26T17:57:24.069Z,5.97
2019-03-26T17:59:52.296Z,6.53
2019-03-26T18:02:20.548Z,6.97
2019-03-26T18:04:48.768Z,7.40
2019-03-26T18:07:17.340Z,7.50
2019-03-26T18:09:45.560Z,7.75
2019-03-26T18:12:13.806Z,7.10
2019-03-26T18:14:42.361Z,8.00
2019-03-26T18:17:10.593Z,9.00
2019-03-26T18:19:38.808Z,9.00
2019-03-26T18:22:07.044Z,10.30
2019-03-26T18:24:35.268Z,9.53
2019-03-26T18:27:03.508Z,10.35
2019-03-26T18:29:31.724Z,9.85
2019-03-26T18:31:59.960Z,9.48
2019-03-26T18:34:28.191Z,10.13
2019-03-26T18:36:56.464Z,9.13
2019-03-26T18:39:24.701Z,9.68
2019-03-26T18:41:53.008Z,10.32
2019-03-26T18:44:21.224Z,9.53
2019-03-26T18:46:49.455Z,9.98
2019-03-26T18:49:17.686Z,10.20
2019-03-26T18:51:45.914Z,10.98
2019-03-26T18:54:14.127Z,9.40
2019-03-26T18:56:42.363Z,10.55
2019-03-26T18:59:10.584Z,10.03
2019-03-26T19:01:38.825Z,10.82
2019-03-26T19:04:07.048Z,10.88
2019-03-26T19:06:35.276Z,11.05
2019-03-26T19:09:04.301Z,10.53
2019-03-26T19:11:32.844Z,10.50
2019-03-26T19:14:01.068Z,10.98
2019-03-26T19:16:29.305Z,10.58
2019-03-26T19:18:57.525Z,10.78
2019-03-26T19:21:25.769Z,10.80
2019-03-26T19:24:03.445Z,11.20
2019-03-26T19:26:23.952Z,9.25
2019-03-26T19:28:52.199Z,10.58
2019-03-26T19:31:20.418Z,10.43
2019-03-26T19:33:48.678Z,10.18
2019-03-26T19:36:16.920Z,10.20
2019-03-26T19:38:45.389Z,10.93
2019-03-26T19:41:13.697Z,10.50
2019-03-26T19:43:41.943Z,10.98
2019-03-26T19:46:10.144Z,10.25
2019-03-26T19:48:38.385Z,10.75
2019-03-26T19:51:06.896Z,10.75
2019-03-26T19:53:35.476Z,11.88
2019-03-26T19:56:03.936Z,10.68
2019-03-26T19:58:32.240Z,9.95
2019-03-26T20:01:00.801Z,10.93
2019-03-26T20:03:29.114Z,11.30
2019-03-26T20:05:57.438Z,11.78
2019-03-26T20:08:25.667Z,11.28
2019-03-26T20:10:53.892Z,11.57
2019-03-26T20:13:24.691Z,11.40
2019-03-26T20:15:52.076Z,11.45
2019-03-26T20:18:20.307Z,10.50
2019-03-26T20:20:48.853Z,10.85
2019-03-26T20:23:17.133Z,11.00
2019-03-26T20:25:45.356Z,10.88
2019-03-26T20:28:13.617Z,11.05
2019-03-26T20:30:42.073Z,11.68
2019-03-26T20:33:10.328Z,12.82
2019-03-26T20:35:38.666Z,13.28
2019-03-26T20:38:06.907Z,13.90
2019-03-26T20:40:35.389Z,14.43
2019-03-26T20:43:03.662Z,13.80
2019-03-26T20:45:31.949Z,13.13
2019-03-26T20:48:00.184Z,13.38
2019-03-26T20:50:28.404Z,12.37
2019-03-26T20:52:56.650Z,11.45
2019-03-26T20:55:32.010Z,11.43
2019-03-26T20:58:00.896Z,12.98
2019-03-26T21:00:35.227Z,11.88
2019-03-26T21:03:03.456Z,11.57
2019-03-26T21:05:31.700Z,12.88
2019-03-26T21:07:59.941Z,11.00
2019-03-26T21:10:28.167Z,11.63
2019-03-26T21:12:56.428Z,12.20
2019-03-26T21:15:24.972Z,11.05
2019-03-26T21:17:53.221Z,12.25
2019-03-26T21:20:21.460Z,15.00
2019-03-26T21:22:49.697Z,14.87
2019-03-26T21:25:17.916Z,15.43
2019-03-26T21:27:46.169Z,13.43
2019-03-26T21:30:16.050Z,14.55
2019-03-26T21:32:44.471Z,14.58
2019-03-26T21:35:13.368Z,13.48
2019-03-26T21:37:41.607Z,12.60
2019-03-26T21:40:10.565Z,12.85
2019-03-26T21:42:39.089Z,12.45
2019-03-26T21:45:08.713Z,14.60
2019-03-26T21:47:36.949Z,18.25
2019-03-26T21:50:05.596Z,12.93
2019-03-26T21:52:33.860Z,12.37
2019-03-26T21:55:02.093Z,11.80
2019-03-26T21:57:30.353Z,12.73
2019-03-26T21:59:58.862Z,11.48
2019-03-26T22:02:27.097Z,11.43
2019-03-26T22:04:55.640Z,11.73
2019-03-26T22:07:24.201Z,14.60
2019-03-26T22:09:52.526Z,12.47
2019-03-26T22:12:21.078Z,11.73
2019-03-26T22:14:49.381Z,11.97
2019-03-26T22:17:17.625Z,12.75
2019-03-26T22:19:45.856Z,12.15
2019-03-26T22:22:14.370Z,12.28
2019-03-26T22:24:42.689Z,12.53
2019-03-26T22:27:10.915Z,12.05
2019-03-26T22:29:39.172Z,12.43
2019-03-26T22:32:07.424Z,12.10
2019-03-26T22:34:35.657Z,12.23
2019-03-26T22:37:03.965Z,11.73
2019-03-26T22:39:32.213Z,12.33
2019-03-26T22:42:00.431Z,12.03
2019-03-26T22:44:31.695Z,11.78
2019-03-26T22:47:00.227Z,12.90
2019-03-26T22:49:28.457Z,12.80
2019-03-26T22:51:56.684Z,12.63
2019-03-26T22:54:25.009Z,13.08
2019-03-26T22:56:53.293Z,13.30
2019-03-26T22:59:21.542Z,12.45
2019-03-26T23:01:49.753Z,12.03
2019-03-26T23:04:20.143Z,12.73
2019-03-26T23:06:48.504Z,12.73
2019-03-26T23:09:16.761Z,13.00
2019-03-26T23:11:44.999Z,12.03
2019-03-26T23:14:14.424Z,11.55
2019-03-26T23:16:42.640Z,12.73
2019-03-26T23:19:10.888Z,11.57
2019-03-26T23:21:39.121Z,12.23
2019-03-26T23:24:07.361Z,12.15
2019-03-26T23:26:35.588Z,11.93
2019-03-26T23:29:03.844Z,12.28
2019-03-26T23:31:32.053Z,12.35
2019-03-26T23:34:00.316Z,11.75
2019-03-26T23:36:28.804Z,11.70
2019-03-26T23:38:57.037Z,12.93
2019-03-26T23:41:25.256Z,11.70
2019-03-26T23:43:53.487Z,11.70
2019-03-26T23:46:21.732Z,12.60
2019-03-26T23:48:49.968Z,11.83
2019-03-26T23:51:18.485Z,12.58
2019-03-26T23:53:46.715Z,13.13
2019-03-26T23:56:14.944Z,12.05
2019-03-26T23:58:43.208Z,12.33
